Time;durP1;ratioP1;P1;durP2;ratioP2;P2;SDS_P1;SDS_P2;PMS_P1;PMS_P2;Temp;Humidity;BMP_temperature;BMP_pressure;BME280_temperature;BME280_humidity;BME280_pressure;Samples;Min_cycle;Max_cycle;Signal;HPM_P1;HPM_P2
2022/06/25 00:01:03;;;;;;;0.57;0.57;;;;;16.40;97997.00;;;;5095159;28;20195;-74
2022/06/25 00:03:30;;;;;;;1.17;1.17;;;;;16.40;97990.00;;;;5094825;28;20535;-74
2022/06/25 00:05:57;;;;;;;0.50;0.50;;;;;16.40;97994.00;;;;5094971;28;20186;-74
2022/06/25 00:08:24;;;;;;;0.40;0.40;;;;;16.50;97997.00;;;;5094786;28;20222;-73
2022/06/25 00:10:51;;;;;;;5.50;0.97;;;;;16.60;98001.00;;;;5094757;28;20222;-74
2022/06/25 00:13:18;;;;;;;0.63;0.63;;;;;16.60;98004.00;;;;5094689;28;20300;-74
2022/06/25 00:15:45;;;;;;;1.27;0.90;;;;;16.70;98007.00;;;;5094057;28;20193;-74
2022/06/25 00:18:12;;;;;;;0.40;0.40;;;;;16.50;98007.00;;;;5076887;28;20202;-74
2022/06/25 00:20:42;;;;;;;0.90;0.90;;;;;16.60;98022.00;;;;5094572;28;20279;-74
2022/06/25 00:23:09;;;;;;;0.77;0.77;;;;;16.60;98018.00;;;;5094593;28;20225;-74
2022/06/25 00:25:36;;;;;;;0.40;0.40;;;;;16.40;98012.00;;;;5094614;28;20194;-73
2022/06/25 00:28:04;;;;;;;13.23;1.43;;;;;16.40;98022.00;;;;5094674;28;20191;-73
2022/06/25 00:30:32;;;;;;;0.60;0.60;;;;;16.40;98015.00;;;;5094533;28;20677;-73
2022/06/25 00:33:00;;;;;;;0.50;0.50;;;;;16.30;98007.00;;;;5094387;28;20229;-74
2022/06/25 00:35:27;;;;;;;0.37;0.37;;;;;16.20;98013.00;;;;5094528;28;20652;-74
2022/06/25 00:37:54;;;;;;;2.20;0.70;;;;;16.30;98018.00;;;;5094371;28;20256;-74
2022/06/25 00:40:21;;;;;;;0.70;0.70;;;;;16.10;98024.00;;;;5094589;28;20221;-72
2022/06/25 00:42:50;;;;;;;1.50;0.77;;;;;16.10;98023.00;;;;5097336;28;20226;-73
2022/06/25 00:45:17;;;;;;;0.73;0.73;;;;;16.10;98028.00;;;;5096028;28;20226;-74
2022/06/25 00:47:44;;;;;;;0.70;0.70;;;;;16.20;98025.00;;;;5095774;28;20213;-73
2022/06/25 00:50:11;;;;;;;0.57;0.57;;;;;16.20;98023.00;;;;5094612;28;20218;-73
2022/06/25 00:52:41;;;;;;;0.50;0.50;;;;;16.30;98021.00;;;;5094219;28;20190;-73
2022/06/25 00:55:11;;;;;;;0.40;0.40;;;;;16.30;98018.00;;;;5094322;28;20210;-73
2022/06/25 00:57:40;;;;;;;0.40;0.40;;;;;16.20;98014.00;;;;5094013;28;20223;-73
2022/06/25 01:00:10;;;;;;;0.60;0.60;;;;;16.20;98017.00;;;;5076524;28;20531;-73
2022/06/25 01:02:39;;;;;;;0.37;0.37;;;;;16.30;98016.00;;;;5094068;28;20566;-73
2022/06/25 01:05:07;;;;;;;0.60;0.60;;;;;16.30;98012.00;;;;5094130;28;20202;-73
2022/06/25 01:07:34;;;;;;;0.40;0.40;;;;;16.20;98014.00;;;;5094582;28;20269;-74
2022/06/25 01:10:02;;;;;;;0.40;0.40;;;;;16.20;98015.00;;;;5093924;28;20266;-74
2022/06/25 01:12:31;;;;;;;0.30;0.30;;;;;16.30;98022.00;;;;5093958;28;20190;-73
2022/06/25 01:15:02;;;;;;;0.50;0.50;;;;;16.30;98031.00;;;;5076155;28;20213;-74
2022/06/25 01:17:29;;;;;;;0.50;0.50;;;;;16.10;98023.00;;;;5093973;28;20199;-73
2022/06/25 01:19:56;;;;;;;0.40;0.40;;;;;16.00;98026.00;;;;5093924;28;20221;-73
2022/06/25 01:22:24;;;;;;;0.63;0.63;;;;;16.00;98023.00;;;;5093740;28;20230;-73
2022/06/25 01:24:53;;;;;;;0.43;0.43;;;;;16.00;98028.00;;;;5093877;28;20198;-74
2022/06/25 01:27:20;;;;;;;0.60;0.60;;;;;16.00;98031.00;;;;5093452;28;20259;-74
2022/06/25 01:29:47;;;;;;;0.40;0.40;;;;;16.20;98031.00;;;;5093712;28;20297;-74
2022/06/25 01:32:14;;;;;;;0.60;0.60;;;;;16.10;98026.00;;;;5093917;28;20233;-74
2022/06/25 01:34:41;;;;;;;0.47;0.47;;;;;16.10;98032.00;;;;5076079;28;20230;-73
2022/06/25 01:37:08;;;;;;;0.50;0.50;;;;;16.00;98032.00;;;;5093824;28;20220;-74
2022/06/25 01:39:37;;;;;;;0.40;0.40;;;;;16.10;98022.00;;;;5093626;28;20211;-73
2022/06/25 01:42:05;;;;;;;0.47;0.47;;;;;16.10;98031.00;;;;5093529;28;20206;-74
2022/06/25 01:44:36;;;;;;;0.60;0.60;;;;;16.10;98028.00;;;;5093588;28;20199;-73
2022/06/25 01:47:04;;;;;;;0.67;0.67;;;;;16.10;98028.00;;;;5093461;28;20233;-74
2022/06/25 01:49:30;;;;;;;0.60;0.60;;;;;16.10;98031.00;;;;5093338;28;20215;-73
2022/06/25 01:51:57;;;;;;;0.50;0.50;;;;;16.00;98030.00;;;;5093646;28;20654;-73
2022/06/25 01:54:24;;;;;;;0.60;0.60;;;;;16.00;98029.00;;;;5093431;28;20213;-73
2022/06/25 01:56:54;;;;;;;0.50;0.50;;;;;16.00;98029.00;;;;5093295;28;20680;-73
2022/06/25 01:59:21;;;;;;;0.90;0.90;;;;;16.00;98032.00;;;;5093511;28;20187;-74
2022/06/25 02:01:47;;;;;;;0.50;0.50;;;;;16.00;98032.00;;;;5093233;28;20197;-73
2022/06/25 02:04:14;;;;;;;0.33;0.33;;;;;15.90;98036.00;;;;5093301;28;20226;-73
2022/06/25 02:06:41;;;;;;;0.53;0.53;;;;;16.00;98030.00;;;;5093188;28;20638;-74
2022/06/25 02:09:08;;;;;;;0.50;0.50;;;;;16.00;98029.00;;;;5093094;28;20237;-73
2022/06/25 02:11:35;;;;;;;0.80;0.80;;;;;16.10;98024.00;;;;5093310;28;20202;-74
2022/06/25 02:14:02;;;;;;;0.80;0.80;;;;;16.10;98033.00;;;;5093162;28;20264;-73
2022/06/25 02:16:29;;;;;;;0.47;0.47;;;;;16.10;98037.00;;;;5093051;28;20222;-74
2022/06/25 02:18:56;;;;;;;0.60;0.60;;;;;16.00;98033.00;;;;5093131;28;20203;-73
2022/06/25 02:21:23;;;;;;;0.40;0.40;;;;;16.00;98041.00;;;;5093082;28;20199;-72
2022/06/25 02:23:50;;;;;;;0.63;0.63;;;;;16.00;98036.00;;;;5092879;28;20226;-74
2022/06/25 02:26:19;;;;;;;0.50;0.50;;;;;16.00;98043.00;;;;5092948;28;20207;-73
2022/06/25 02:28:46;;;;;;;0.50;0.50;;;;;15.90;98054.00;;;;5092880;28;20226;-74
2022/06/25 02:31:16;;;;;;;0.50;0.50;;;;;15.80;98054.00;;;;5092864;28;20701;-74
2022/06/25 02:33:45;;;;;;;0.50;0.50;;;;;15.80;98051.00;;;;5092878;28;20197;-73
2022/06/25 02:36:12;;;;;;;0.53;0.53;;;;;15.70;98050.00;;;;5093314;28;20579;-73
2022/06/25 02:38:38;;;;;;;1.00;1.00;;;;;15.80;98057.00;;;;5093258;28;20194;-74
2022/06/25 02:41:05;;;;;;;0.47;0.47;;;;;15.80;98056.00;;;;5078198;28;20548;-73
2022/06/25 02:43:32;;;;;;;0.60;0.60;;;;;15.90;98052.00;;;;5096277;28;20207;-74
2022/06/25 02:45:59;;;;;;;0.77;0.77;;;;;15.80;98049.00;;;;5096532;28;20191;-73
2022/06/25 02:48:26;;;;;;;0.40;0.40;;;;;15.80;98057.00;;;;5099467;28;20206;-73
2022/06/25 02:50:53;;;;;;;0.53;0.53;;;;;15.80;98047.00;;;;5096434;28;20673;-73
2022/06/25 02:53:20;;;;;;;0.47;0.47;;;;;15.70;98051.00;;;;5096644;28;20218;-74
2022/06/25 03:01:19;;;;;;;0.57;0.57;;;;;15.70;98050.00;;;;5096018;28;20218;-72
2022/06/25 03:03:49;;;;;;;0.67;0.67;;;;;15.70;98054.00;;;;5095934;28;20194;-73
2022/06/25 03:06:16;;;;;;;0.50;0.50;;;;;15.70;98052.00;;;;5095734;28;20662;-72
2022/06/25 03:08:43;;;;;;;0.70;0.70;;;;;15.70;98051.00;;;;5095842;28;20669;-73
2022/06/25 03:11:10;;;;;;;0.50;0.50;;;;;15.70;98053.00;;;;5077762;28;20230;-73
2022/06/25 03:13:39;;;;;;;2.77;1.23;;;;;15.70;98047.00;;;;5095779;28;20226;-73
2022/06/25 03:16:07;;;;;;;0.60;0.60;;;;;15.60;98059.00;;;;5095712;28;20191;-73
2022/06/25 03:18:37;;;;;;;0.97;0.57;;;;;15.70;98054.00;;;;5095829;28;20229;-73
2022/06/25 03:21:07;;;;;;;10.03;0.80;;;;;15.60;98055.00;;;;5095802;28;20203;-73
2022/06/25 03:23:36;;;;;;;0.70;0.70;;;;;15.60;98056.00;;;;5095597;28;20609;-73
2022/06/25 03:26:03;;;;;;;0.73;0.73;;;;;15.60;98052.00;;;;5095763;28;20562;-73
2022/06/25 03:28:32;;;;;;;0.90;0.90;;;;;15.50;98048.00;;;;5095771;28;20197;-73
2022/06/25 03:30:58;;;;;;;0.50;0.50;;;;;15.40;98040.00;;;;5095435;28;20230;-73
2022/06/25 03:33:25;;;;;;;0.60;0.60;;;;;15.40;98047.00;;;;5095466;28;20198;-73
2022/06/25 03:35:52;;;;;;;0.67;0.67;;;;;15.40;98042.00;;;;5095375;28;20256;-73
2022/06/25 03:38:22;;;;;;;0.50;0.50;;;;;15.40;98039.00;;;;5095355;28;20250;-73
2022/06/25 03:41:32;;;;;;;0.50;0.50;;;;;15.50;98040.00;;;;5095275;28;20240;-72
2022/06/25 03:43:38;;;;;;;0.57;0.57;;;;;15.50;98040.00;;;;5095293;28;20290;-73
2022/06/25 03:46:06;;;;;;;0.60;0.60;;;;;15.60;98042.00;;;;5095256;28;20642;-73
2022/06/25 03:48:33;;;;;;;0.70;0.70;;;;;15.50;98045.00;;;;5077317;28;20666;-73
2022/06/25 03:50:59;;;;;;;1.33;1.33;;;;;15.60;98047.00;;;;5093811;28;20219;-73
2022/06/25 03:53:27;;;;;;;1.27;1.17;;;;;15.60;98051.00;;;;5077574;28;20304;-73
2022/06/25 03:55:54;;;;;;;0.70;0.70;;;;;15.50;98054.00;;;;5095043;28;20190;-73
2022/06/25 03:58:20;;;;;;;0.50;0.50;;;;;15.70;98061.00;;;;5094975;28;20206;-73
2022/06/25 04:00:47;;;;;;;0.50;0.50;;;;;15.70;98056.00;;;;5094996;28;20218;-73
2022/06/25 04:03:14;;;;;;;0.50;0.50;;;;;15.80;98053.00;;;;5094982;28;20199;-73
2022/06/25 04:05:41;;;;;;;0.40;0.40;;;;;15.70;98061.00;;;;5094927;28;20197;-73
2022/06/25 04:08:08;;;;;;;0.90;0.90;;;;;15.80;98059.00;;;;5095118;28;20194;-73
2022/06/25 04:10:35;;;;;;;0.90;0.90;;;;;15.70;98065.00;;;;5076828;28;20639;-73
2022/06/25 04:13:02;;;;;;;0.50;0.50;;;;;15.70;98069.00;;;;5094779;28;20222;-73
2022/06/25 04:15:29;;;;;;;0.50;0.50;;;;;15.80;98065.00;;;;5094809;28;20205;-73
2022/06/25 04:17:56;;;;;;;0.67;0.67;;;;;15.80;98061.00;;;;5094720;28;20199;-73
2022/06/25 04:20:23;;;;;;;1.10;0.80;;;;;15.90;98072.00;;;;5094625;28;20219;-73
2022/06/25 04:22:50;;;;;;;0.40;0.40;;;;;15.90;98077.00;;;;5094655;28;20190;-73
2022/06/25 04:25:17;;;;;;;0.50;0.50;;;;;15.90;98080.00;;;;5094557;28;20222;-71
2022/06/25 04:30:29;;;;;;;0.50;0.50;;;;;16.00;98086.00;;;;5094540;28;20726;-72
2022/06/25 04:32:56;;;;;;;0.60;0.60;;;;;16.00;98083.00;;;;5094781;28;20244;-73
2022/06/25 04:35:23;;;;;;;0.30;0.30;;;;;16.10;98092.00;;;;5094733;28;20191;-73
2022/06/25 04:37:50;;;;;;;0.40;0.40;;;;;16.10;98097.00;;;;5094376;28;20222;-73
2022/06/25 04:40:17;;;;;;;0.50;0.50;;;;;16.00;98098.00;;;;5094596;28;20277;-73
2022/06/25 04:42:45;;;;;;;0.57;0.57;;;;;16.00;98098.00;;;;5094431;28;20522;-73
2022/06/25 04:45:12;;;;;;;0.70;0.70;;;;;16.00;98105.00;;;;5094274;28;20236;-71
2022/06/25 04:47:41;;;;;;;0.60;0.60;;;;;16.00;98097.00;;;;5094363;28;20199;-74
2022/06/25 04:50:08;;;;;;;0.60;0.60;;;;;16.10;98103.00;;;;5076341;28;20227;-73
2022/06/25 04:52:35;;;;;;;0.50;0.50;;;;;16.10;98100.00;;;;5094277;28;20187;-73
2022/06/25 04:55:02;;;;;;;0.77;0.77;;;;;16.20;98105.00;;;;5094319;28;20650;-74
2022/06/25 04:57:29;;;;;;;0.50;0.50;;;;;16.20;98113.00;;;;5094125;28;20218;-73
2022/06/25 04:59:56;;;;;;;1.17;1.17;;;;;16.20;98115.00;;;;5094148;28;20546;-73
2022/06/25 05:02:23;;;;;;;0.47;0.47;;;;;16.20;98116.00;;;;5093515;28;20225;-74
2022/06/25 05:04:50;;;;;;;1.17;1.10;;;;;16.20;98120.00;;;;5093906;28;20202;-74
2022/06/25 05:07:17;;;;;;;0.60;0.60;;;;;16.30;98120.00;;;;5093997;28;20622;-74
2022/06/25 05:09:44;;;;;;;0.50;0.50;;;;;16.40;98115.00;;;;5093177;28;20223;-73
2022/06/25 05:13:11;;;;;;;0.50;0.50;;;;;16.40;98121.00;;;;5094220;28;20559;-73
2022/06/25 05:14:59;;;;;;;0.53;0.53;;;;;16.40;98120.00;;;;5093822;28;20202;-74
2022/06/25 05:17:26;;;;;;;0.60;0.60;;;;;16.50;98120.00;;;;5093876;28;20194;-73
2022/06/25 05:19:55;;;;;;;0.60;0.60;;;;;16.50;98127.00;;;;5093930;28;20275;-73
2022/06/25 05:22:23;;;;;;;0.50;0.50;;;;;16.50;98130.00;;;;5093803;28;20201;-73
2022/06/25 05:24:53;;;;;;;0.53;0.53;;;;;16.50;98132.00;;;;5075936;28;20217;-73
2022/06/25 05:27:23;;;;;;;0.80;0.80;;;;;16.60;98129.00;;;;5093671;28;20213;-73
2022/06/25 05:29:50;;;;;;;0.50;0.50;;;;;16.60;98129.00;;;;5076024;28;20280;-73
2022/06/25 05:32:17;;;;;;;0.60;0.60;;;;;16.70;98127.00;;;;5076082;28;20202;-73
2022/06/25 05:34:44;;;;;;;0.50;0.50;;;;;16.70;98127.00;;;;5093557;28;20218;-73
2022/06/25 05:37:11;;;;;;;0.60;0.60;;;;;16.80;98129.00;;;;5092762;28;20313;-73
2022/06/25 05:39:38;;;;;;;0.47;0.47;;;;;16.80;98125.00;;;;5093432;28;20581;-73
2022/06/25 05:42:05;;;;;;;0.43;0.43;;;;;16.90;98119.00;;;;5093724;28;20187;-73
2022/06/25 05:44:32;;;;;;;0.50;0.50;;;;;17.00;98121.00;;;;5092404;28;20649;-73
2022/06/25 05:46:59;;;;;;;0.43;0.43;;;;;17.00;98134.00;;;;5093484;28;20191;-73
2022/06/25 05:49:27;;;;;;;0.57;0.57;;;;;17.00;98137.00;;;;5093365;28;20218;-73
2022/06/25 05:51:53;;;;;;;0.40;0.40;;;;;17.00;98134.00;;;;5093862;28;20197;-73
2022/06/25 05:54:20;;;;;;;0.47;0.47;;;;;17.10;98136.00;;;;5093417;28;20234;-73
2022/06/25 05:56:47;;;;;;;0.50;0.50;;;;;17.30;98147.00;;;;5093395;28;20623;-73
2022/06/25 05:59:16;;;;;;;0.50;0.50;;;;;17.30;98138.00;;;;5093361;28;20229;-73
2022/06/25 06:01:43;;;;;;;1.50;1.33;;;;;17.40;98138.00;;;;5093397;28;20255;-73
2022/06/25 06:04:10;;;;;;;0.40;0.40;;;;;17.50;98143.00;;;;5093219;28;20230;-73
2022/06/25 06:06:37;;;;;;;0.40;0.40;;;;;17.50;98148.00;;;;5075360;28;20579;-72
2022/06/25 06:09:04;;;;;;;0.60;0.60;;;;;17.50;98143.00;;;;5093362;28;20276;-73
2022/06/25 06:11:31;;;;;;;0.40;0.40;;;;;17.50;98148.00;;;;5093179;28;20223;-72
2022/06/25 06:13:58;;;;;;;0.50;0.50;;;;;17.60;98155.00;;;;5093065;28;20646;-72
2022/06/25 06:16:27;;;;;;;0.83;0.83;;;;;17.60;98154.00;;;;5096943;28;20653;-73
2022/06/25 06:18:54;;;;;;;0.60;0.60;;;;;17.80;98157.00;;;;5096633;28;20187;-73
2022/06/25 06:21:20;;;;;;;0.43;0.43;;;;;17.80;98152.00;;;;5096951;28;20669;-73
2022/06/25 06:23:48;;;;;;;0.57;0.57;;;;;17.90;98150.00;;;;5078708;28;20293;-73
2022/06/25 06:26:15;;;;;;;0.47;0.47;;;;;17.90;98144.00;;;;5096657;28;20264;-73
2022/06/25 06:28:43;;;;;;;0.50;0.50;;;;;17.90;98152.00;;;;5096492;28;20191;-74
2022/06/25 06:31:09;;;;;;;0.60;0.60;;;;;17.90;98158.00;;;;5096473;28;20210;-73
2022/06/25 06:33:37;;;;;;;0.50;0.50;;;;;18.00;98157.00;;;;5096297;28;20194;-73
2022/06/25 06:36:04;;;;;;;0.60;0.60;;;;;18.10;98161.00;;;;5096510;28;20187;-73
2022/06/25 06:38:31;;;;;;;0.60;0.60;;;;;18.20;98157.00;;;;5096432;28;20784;-74
2022/06/25 06:40:59;;;;;;;0.60;0.60;;;;;18.20;98159.00;;;;5096196;28;20190;-73
2022/06/25 06:43:26;;;;;;;0.40;0.40;;;;;18.30;98169.00;;;;5096229;28;20198;-73
2022/06/25 06:45:52;;;;;;;0.50;0.50;;;;;18.40;98169.00;;;;5096220;28;20226;-73
2022/06/25 06:48:19;;;;;;;0.47;0.47;;;;;18.50;98168.00;;;;5096249;28;20233;-74
2022/06/25 06:50:46;;;;;;;0.40;0.40;;;;;18.50;98165.00;;;;5095965;28;20295;-73
2022/06/25 06:53:13;;;;;;;0.47;0.47;;;;;18.60;98163.00;;;;5096151;28;20201;-74
2022/06/25 06:55:40;;;;;;;0.40;0.40;;;;;18.70;98156.00;;;;5096063;28;20334;-73
2022/06/25 06:58:07;;;;;;;0.73;0.70;;;;;18.80;98161.00;;;;5096194;28;20289;-73
2022/06/25 07:00:36;;;;;;;0.60;0.60;;;;;18.80;98163.00;;;;5096151;28;20314;-73
2022/06/25 07:03:03;;;;;;;0.60;0.60;;;;;18.90;98153.00;;;;5096039;28;20193;-73
2022/06/25 07:05:30;;;;;;;0.50;0.50;;;;;19.00;98159.00;;;;5096171;28;20222;-73
2022/06/25 07:07:57;;;;;;;0.60;0.60;;;;;19.10;98156.00;;;;5096000;28;20308;-73
2022/06/25 07:10:24;;;;;;;0.50;0.50;;;;;19.20;98156.00;;;;5095737;28;20222;-74
2022/06/25 07:12:51;;;;;;;0.40;0.40;;;;;19.20;98151.00;;;;5095800;28;20274;-73
2022/06/25 07:15:18;;;;;;;0.60;0.60;;;;;19.30;98155.00;;;;5094968;28;20233;-73
2022/06/25 07:17:45;;;;;;;2.00;0.67;;;;;19.40;98156.00;;;;5095612;28;20517;-73
2022/06/25 07:20:12;;;;;;;0.40;0.40;;;;;19.60;98162.00;;;;5094801;28;20232;-72
2022/06/25 07:22:39;;;;;;;0.40;0.40;;;;;19.60;98160.00;;;;5095856;28;20199;-74
2022/06/25 07:25:06;;;;;;;0.30;0.30;;;;;19.60;98153.00;;;;5095253;28;20617;-73
2022/06/25 07:27:33;;;;;;;0.50;0.50;;;;;19.60;98147.00;;;;5095505;28;20194;-76
2022/06/25 07:30:00;;;;;;;0.60;0.60;;;;;19.60;98146.00;;;;5095330;28;20272;-73
2022/06/25 07:32:28;;;;;;;0.40;0.40;;;;;19.60;98148.00;;;;5095536;28;20182;-74
2022/06/25 07:34:57;;;;;;;0.77;0.77;;;;;19.70;98152.00;;;;5095345;28;20205;-74
2022/06/25 07:37:23;;;;;;;0.50;0.50;;;;;19.70;98151.00;;;;5095459;28;20201;-75
2022/06/25 07:39:50;;;;;;;0.53;0.53;;;;;19.70;98153.00;;;;5095360;28;20263;-74
2022/06/25 07:42:19;;;;;;;0.40;0.40;;;;;19.70;98148.00;;;;5095232;28;20246;-74
2022/06/25 07:44:46;;;;;;;0.33;0.33;;;;;19.70;98154.00;;;;5095456;28;20202;-76
2022/06/25 07:47:16;;;;;;;0.53;0.53;;;;;19.80;98145.00;;;;5095234;28;20214;-76
2022/06/25 07:52:28;;;;;;;0.30;0.30;;;;;20.00;98150.00;;;;5095093;28;20256;-77
2022/06/25 07:54:55;;;;;;;0.40;0.40;;;;;20.00;98149.00;;;;5095045;28;20205;-76
2022/06/25 07:57:22;;;;;;;0.50;0.50;;;;;20.10;98145.00;;;;5095018;28;20222;-77
2022/06/25 07:59:48;;;;;;;0.40;0.40;;;;;20.10;98139.00;;;;5094970;28;20199;-76
2022/06/25 08:02:15;;;;;;;0.60;0.60;;;;;20.20;98136.00;;;;5080163;28;20553;-74
2022/06/25 08:04:43;;;;;;;0.50;0.50;;;;;20.20;98134.00;;;;5095832;28;20202;-76
2022/06/25 08:07:09;;;;;;;0.40;0.40;;;;;20.40;98135.00;;;;5094767;28;20229;-77
2022/06/25 08:09:36;;;;;;;0.70;0.70;;;;;20.50;98120.00;;;;5094878;28;20216;-76
2022/06/25 08:12:04;;;;;;;0.50;0.50;;;;;20.60;98119.00;;;;5094764;28;20226;-76
2022/06/25 08:14:33;;;;;;;0.53;0.53;;;;;20.80;98122.00;;;;5094832;28;20210;-76
2022/06/25 08:16:59;;;;;;;0.50;0.50;;;;;20.80;98121.00;;;;5076960;28;20701;-76
2022/06/25 08:19:26;;;;;;;0.63;0.63;;;;;20.90;98117.00;;;;5094702;28;20199;-76
2022/06/25 08:21:54;;;;;;;0.50;0.50;;;;;21.00;98130.00;;;;5094752;28;20197;-76
2022/06/25 08:24:21;;;;;;;0.60;0.60;;;;;21.00;98132.00;;;;5094874;28;20207;-76
2022/06/25 08:26:47;;;;;;;0.60;0.60;;;;;21.20;98132.00;;;;5094750;28;20195;-76
2022/06/25 08:29:15;;;;;;;0.40;0.40;;;;;21.30;98128.00;;;;5094650;28;20194;-75
2022/06/25 08:31:44;;;;;;;0.70;0.70;;;;;21.50;98132.00;;;;5094526;28;20297;-76
2022/06/25 08:34:13;;;;;;;0.55;0.55;;;;;21.50;98128.00;;;;5094578;28;20214;-76
2022/06/25 08:36:40;;;;;;;0.50;0.50;;;;;21.50;98132.00;;;;5094134;28;20198;-76
2022/06/25 08:39:07;;;;;;;0.93;0.93;;;;;21.60;98128.00;;;;5076705;28;20548;-81
2022/06/25 08:41:37;;;;;;;0.47;0.47;;;;;21.60;98121.00;;;;5094622;28;20218;-77
2022/06/25 08:44:04;;;;;;;0.47;0.47;;;;;21.70;98127.00;;;;5094272;28;20218;-76
2022/06/25 08:46:31;;;;;;;0.55;0.55;;;;;21.80;98128.00;;;;5094262;28;20221;-76
2022/06/25 08:48:59;;;;;;;0.77;0.77;;;;;21.90;98122.00;;;;5094285;28;20271;-76
2022/06/25 08:51:30;;;;;;;0.40;0.40;;;;;22.10;98122.00;;;;5094158;28;20219;-75
2022/06/25 08:53:58;;;;;;;0.50;0.50;;;;;22.20;98123.00;;;;5094185;28;20215;-74
2022/06/25 08:56:25;;;;;;;0.40;0.40;;;;;22.20;98116.00;;;;5094203;28;20273;-73
2022/06/25 08:58:52;;;;;;;0.35;0.35;;;;;22.30;98113.00;;;;5097085;28;20235;-75
2022/06/25 09:01:19;;;;;;;0.50;0.50;;;;;22.30;98106.00;;;;5094833;28;20213;-73
2022/06/25 09:03:46;;;;;;;0.60;0.60;;;;;22.40;98114.00;;;;5076192;28;20535;-75
2022/06/25 09:06:14;;;;;;;0.43;0.43;;;;;22.50;98110.00;;;;5076296;28;20198;-75
2022/06/25 09:08:45;;;;;;;2.75;1.02;;;;;22.50;98110.00;;;;5093985;28;20228;-77
2022/06/25 09:11:12;;;;;;;3.85;1.25;;;;;22.60;98106.00;;;;5093847;28;20223;-75
2022/06/25 09:13:40;;;;;;;0.50;0.50;;;;;22.90;98105.00;;;;5094137;28;20299;-76
2022/06/25 09:16:24;;;;;;;0.57;0.57;;;;;23.00;98098.00;;;;5093953;28;20222;-76
2022/06/25 09:18:51;;;;;;;0.40;0.40;;;;;23.00;98104.00;;;;5093891;28;20195;-76
2022/06/25 09:21:18;;;;;;;0.45;0.45;;;;;23.20;98099.00;;;;5093803;28;20566;-75
2022/06/25 09:23:57;;;;;;;0.47;0.47;;;;;23.40;98109.00;;;;5093889;28;20219;-75
2022/06/25 09:26:23;;;;;;;0.50;0.50;;;;;23.20;98093.00;;;;5093691;28;20218;-75
2022/06/25 09:29:00;;;;;;;0.50;0.50;;;;;23.40;98095.00;;;;5093765;28;20237;-75
2022/06/25 09:31:35;;;;;;;0.50;0.50;;;;;23.40;98094.00;;;;5093443;28;20661;-72
2022/06/25 09:34:03;;;;;;;1.17;1.17;;;;;23.40;98090.00;;;;5093843;28;20198;-72
2022/06/25 09:36:31;;;;;;;0.50;0.50;;;;;23.60;98084.00;;;;5093535;28;20210;-73
2022/06/25 09:38:58;;;;;;;0.70;0.70;;;;;23.60;98084.00;;;;5093649;28;20206;-72
2022/06/25 09:41:25;;;;;;;1.40;1.20;;;;;23.70;98079.00;;;;5093590;28;20219;-72
2022/06/25 09:43:54;;;;;;;0.85;0.82;;;;;23.90;98083.00;;;;5093463;28;20202;-76
2022/06/25 09:46:21;;;;;;;0.50;0.50;;;;;24.00;98085.00;;;;5093418;28;20222;-74
2022/06/25 09:48:48;;;;;;;0.68;0.68;;;;;24.00;98093.00;;;;5094683;28;20206;-72
2022/06/25 09:51:18;;;;;;;0.60;0.60;;;;;23.80;98089.00;;;;5096927;28;20226;-74
2022/06/25 09:53:47;;;;;;;0.50;0.50;;;;;23.70;98089.00;;;;5097269;28;20202;-72
2022/06/25 09:56:15;;;;;;;0.80;0.80;;;;;23.70;98097.00;;;;5096954;28;20317;-80
2022/06/25 09:58:43;;;;;;;0.57;0.57;;;;;24.10;98088.00;;;;5097054;28;20175;-80
2022/06/25 10:01:15;;;;;;;3.10;0.80;;;;;24.20;98090.00;;;;5097072;28;20224;-75
2022/06/25 10:03:43;;;;;;;0.50;0.50;;;;;24.40;98091.00;;;;5096946;28;20198;-75
2022/06/25 10:06:12;;;;;;;0.50;0.50;;;;;24.50;98095.00;;;;5097079;28;20199;-75
2022/06/25 10:08:41;;;;;;;0.50;0.50;;;;;24.50;98089.00;;;;5096976;28;20206;-77
2022/06/25 10:11:10;;;;;;;0.55;0.55;;;;;24.50;98082.00;;;;5078991;28;20230;-76
2022/06/25 10:13:37;;;;;;;0.50;0.50;;;;;24.60;98088.00;;;;5096774;28;20292;-76
2022/06/25 10:16:04;;;;;;;1.63;0.90;;;;;24.70;98076.00;;;;5096864;28;20199;-74
2022/06/25 10:18:35;;;;;;;0.57;0.57;;;;;24.80;98077.00;;;;5097032;28;20673;-75
2022/06/25 10:21:03;;;;;;;0.75;0.75;;;;;25.10;98061.00;;;;5096758;28;20198;-75
2022/06/25 10:23:30;;;;;;;0.65;0.65;;;;;25.20;98073.00;;;;5096619;28;20713;-73
2022/06/25 10:25:59;;;;;;;1.88;0.80;;;;;25.40;98071.00;;;;5096642;28;20206;-74
2022/06/25 10:28:29;;;;;;;0.80;0.80;;;;;25.40;98065.00;;;;5096494;28;20579;-75
2022/06/25 10:30:57;;;;;;;0.40;0.40;;;;;25.50;98064.00;;;;5096603;28;20560;-74
2022/06/25 10:33:26;;;;;;;0.50;0.50;;;;;25.80;98062.00;;;;5096463;28;20250;-74
2022/06/25 10:35:57;;;;;;;0.70;0.70;;;;;25.80;98065.00;;;;5096385;28;20207;-74
2022/06/25 10:38:25;;;;;;;0.90;0.90;;;;;26.00;98063.00;;;;5096224;28;20610;-73
2022/06/25 10:40:56;;;;;;;0.50;0.50;;;;;25.90;98056.00;;;;5097658;28;20244;-73
2022/06/25 10:43:38;;;;;;;0.57;0.57;;;;;26.00;98061.00;;;;5098604;28;20226;-76
2022/06/25 10:46:26;;;;;;;0.50;0.50;;;;;26.20;98055.00;;;;5097944;28;20191;-75
2022/06/25 10:49:04;;;;;;;0.80;0.80;;;;;26.20;98050.00;;;;5096296;28;20311;-75
2022/06/25 10:51:34;;;;;;;0.60;0.60;;;;;26.30;98044.00;;;;5096199;28;20229;-75
2022/06/25 10:54:05;;;;;;;0.60;0.60;;;;;26.60;98046.00;;;;5096095;28;20316;-73
2022/06/25 10:56:44;;;;;;;0.75;0.75;;;;;26.80;98043.00;;;;5096062;28;20255;-72
2022/06/25 10:59:45;;;;;;;0.50;0.50;;;;;26.90;98014.00;;;;5096130;28;20236;-72
2022/06/25 11:02:16;;;;;;;0.47;0.47;;;;;27.20;98052.00;;;;5095639;28;20198;-74
2022/06/25 11:04:52;;;;;;;0.50;0.50;;;;;27.50;98055.00;;;;5095917;28;20222;-72
2022/06/25 11:07:21;;;;;;;15.30;1.50;;;;;27.30;98049.00;;;;5096065;28;20528;-72
2022/06/25 11:09:56;;;;;;;0.40;0.40;;;;;26.90;98042.00;;;;5095785;28;20283;-73
2022/06/25 11:12:27;;;;;;;0.40;0.40;;;;;26.60;98039.00;;;;5095871;28;20194;-73
2022/06/25 11:15:02;;;;;;;0.90;0.90;;;;;26.50;98032.00;;;;5095708;28;20226;-74
2022/06/25 11:17:29;;;;;;;0.55;0.55;;;;;26.50;98040.00;;;;5095759;28;20250;-74
2022/06/25 11:20:04;;;;;;;0.60;0.60;;;;;26.40;98038.00;;;;5095764;28;20234;-74
2022/06/25 11:22:31;;;;;;;0.50;0.50;;;;;26.40;98034.00;;;;5095748;28;20186;-75
2022/06/25 11:30:29;;;;;;;0.50;0.50;;;;;26.40;98030.00;;;;5095382;28;20226;-74
2022/06/25 11:32:56;;;;;;;0.40;0.40;;;;;26.20;98039.00;;;;5095481;28;20190;-74
2022/06/25 11:35:38;;;;;;;0.70;0.70;;;;;26.60;98026.00;;;;5095366;28;20214;-74
2022/06/25 11:38:15;;;;;;;0.60;0.60;;;;;27.00;98026.00;;;;5095638;28;20522;-74
2022/06/25 11:40:42;;;;;;;0.50;0.50;;;;;26.90;98028.00;;;;5095427;28;20229;-74
2022/06/25 11:43:09;;;;;;;0.50;0.50;;;;;27.20;98018.00;;;;5095359;28;20198;-74
2022/06/25 11:45:49;;;;;;;0.50;0.50;;;;;27.60;98016.00;;;;5095833;28;20264;-75
2022/06/25 11:48:16;;;;;;;0.45;0.45;;;;;27.80;98021.00;;;;5095312;28;20201;-75
2022/06/25 11:50:43;;;;;;;0.40;0.40;;;;;28.10;98018.00;;;;5095216;28;20234;-75
2022/06/25 11:53:10;;;;;;;0.70;0.70;;;;;28.40;98017.00;;;;5095244;28;20225;-74
2022/06/25 11:55:40;;;;;;;0.60;0.60;;;;;28.50;98008.00;;;;5095143;28;20201;-73
2022/06/25 11:58:06;;;;;;;0.70;0.70;;;;;28.80;98015.00;;;;5095311;28;20205;-74
2022/06/25 12:00:33;;;;;;;0.50;0.50;;;;;28.90;98011.00;;;;5095522;28;20195;-75
2022/06/25 12:03:05;;;;;;;0.57;0.57;;;;;29.10;97977.00;;;;5095346;28;20203;-77
2022/06/25 12:05:33;;;;;;;0.55;0.55;;;;;29.30;97997.00;;;;5095096;28;20194;-78
2022/06/25 12:08:03;;;;;;;0.68;0.68;;;;;29.20;98002.00;;;;5095132;28;20202;-79
2022/06/25 12:10:31;;;;;;;0.60;0.60;;;;;29.10;98000.00;;;;5094942;28;20253;-77
2022/06/25 12:12:59;;;;;;;0.63;0.63;;;;;29.00;98010.00;;;;5093726;28;20250;-78
2022/06/25 12:15:30;;;;;;;0.55;0.55;;;;;28.80;97995.00;;;;5094858;28;20191;-75
2022/06/25 12:18:04;;;;;;;0.60;0.60;;;;;29.00;97996.00;;;;5094738;28;20230;-80
2022/06/25 12:20:31;;;;;;;0.50;0.50;;;;;29.20;97988.00;;;;5077306;28;20195;-76
2022/06/25 12:22:59;;;;;;;0.82;0.82;;;;;29.60;97995.00;;;;5094724;28;20287;-76
2022/06/25 12:25:27;;;;;;;0.47;0.47;;;;;29.90;97986.00;;;;5094925;28;20202;-75
2022/06/25 12:27:54;;;;;;;0.50;0.50;;;;;30.10;97994.00;;;;5094596;28;20642;-74
2022/06/25 12:30:23;;;;;;;1.35;0.75;;;;;29.70;97980.00;;;;5094516;28;20218;-74
2022/06/25 12:33:03;;;;;;;0.50;0.50;;;;;29.70;97976.00;;;;5172999;27;20307;-75
2022/06/25 12:35:33;;;;;;;0.50;0.50;;;;;29.70;97969.00;;;;5152016;27;20189;-74
2022/06/25 12:38:04;;;;;;;0.70;0.70;;;;;30.20;97972.00;;;;5151916;27;20248;-74
2022/06/25 12:40:33;;;;;;;0.82;0.82;;;;;30.50;97972.00;;;;5151977;27;20204;-76